createdAt,value
2019-05-15T00:00:32.541Z,6.16
2019-05-15T00:01:29.333Z,6.17
2019-05-15T00:02:29.228Z,6.24
2019-05-15T00:03:29.121Z,6.16
2019-05-15T00:04:29.015Z,6.12
2019-05-15T00:05:29.204Z,6.24
2019-05-15T00:06:28.819Z,6.28
2019-05-15T00:07:29.448Z,6.22
2019-05-15T00:08:28.818Z,6.24
2019-05-15T00:09:28.723Z,6.27
2019-05-15T00:10:28.778Z,6.17
2019-05-15T00:11:28.754Z,6.24
2019-05-15T00:12:28.482Z,6.19
2019-05-15T00:13:28.382Z,6.16
2019-05-15T00:14:28.789Z,6.16
2019-05-15T00:15:27.999Z,6.16
2019-05-15T00:16:29.051Z,6.20
2019-05-15T00:17:28.337Z,6.16
2019-05-15T00:18:28.182Z,6.17
2019-05-15T00:19:28.465Z,6.14
2019-05-15T00:20:29.345Z,6.14
2019-05-15T00:21:28.797Z,6.07
2019-05-15T00:22:29.020Z,6.12
2019-05-15T00:23:28.939Z,6.16
2019-05-15T00:24:28.732Z,6.07
2019-05-15T00:25:28.290Z,6.11
2019-05-15T00:26:26.696Z,6.01
2019-05-15T00:27:28.382Z,6.02
2019-05-15T00:28:28.042Z,5.99
2019-05-15T00:29:28.732Z,6.01
2019-05-15T00:30:26.298Z,5.97
2019-05-15T00:31:26.166Z,5.91
2019-05-15T00:32:28.104Z,5.83
2019-05-15T00:33:25.959Z,5.87
2019-05-15T00:34:25.851Z,5.99
2019-05-15T00:35:28.569Z,5.94
2019-05-15T00:36:25.638Z,5.93
2019-05-15T00:37:25.534Z,5.86
2019-05-15T00:38:25.428Z,5.87
2019-05-15T00:39:25.325Z,5.82
2019-05-15T00:40:25.215Z,5.82
2019-05-15T00:41:25.111Z,5.69
2019-05-15T00:42:25.006Z,5.80
2019-05-15T00:43:24.900Z,5.75
2019-05-15T00:44:24.793Z,5.80
2019-05-15T00:45:24.688Z,5.87
2019-05-15T00:46:24.590Z,5.82
2019-05-15T00:47:24.479Z,5.80
2019-05-15T00:48:24.372Z,5.79
2019-05-15T00:49:24.351Z,5.80
2019-05-15T00:50:24.160Z,5.72
2019-05-15T00:51:24.051Z,5.69
2019-05-15T00:52:23.947Z,5.87
2019-05-15T00:53:23.844Z,5.84
2019-05-15T00:54:23.737Z,5.89
2019-05-15T00:55:23.631Z,5.83
2019-05-15T00:56:23.526Z,5.89
2019-05-15T00:57:23.420Z,5.89
2019-05-15T00:58:23.320Z,5.84
2019-05-15T00:59:26.699Z,5.98
2019-05-15T01:00:23.104Z,5.93
2019-05-15T01:01:22.997Z,5.89
2019-05-15T01:02:22.893Z,5.90
2019-05-15T01:03:22.786Z,5.87
2019-05-15T01:04:22.680Z,5.86
2019-05-15T01:05:22.574Z,5.84
2019-05-15T01:06:22.466Z,5.93
2019-05-15T01:07:22.362Z,5.90
2019-05-15T01:08:22.311Z,5.91
2019-05-15T01:09:22.152Z,5.94
2019-05-15T01:10:22.046Z,5.90
2019-05-15T01:11:21.944Z,5.97
2019-05-15T01:12:21.834Z,5.91
2019-05-15T01:13:21.727Z,5.90
2019-05-15T01:14:21.623Z,5.87
2019-05-15T01:15:21.522Z,5.86
2019-05-15T01:16:21.411Z,5.86
2019-05-15T01:17:21.304Z,5.75
2019-05-15T01:18:21.200Z,5.68
2019-05-15T01:19:21.092Z,5.68
2019-05-15T01:20:20.991Z,5.68
2019-05-15T01:21:20.892Z,5.69
2019-05-15T01:22:20.778Z,5.68
2019-05-15T01:23:20.672Z,5.71
2019-05-15T01:24:20.561Z,5.66
2019-05-15T01:25:20.458Z,5.76
2019-05-15T01:26:20.352Z,5.59
2019-05-15T01:27:20.324Z,5.71
2019-05-15T01:28:20.157Z,5.62
2019-05-15T01:29:20.038Z,5.72
2019-05-15T01:30:19.929Z,5.69
2019-05-15T01:31:19.822Z,5.62
2019-05-15T01:32:19.717Z,5.59
2019-05-15T01:33:19.612Z,5.66
2019-05-15T01:34:19.507Z,5.64
2019-05-15T01:35:19.398Z,5.72
2019-05-15T01:36:19.451Z,5.65
2019-05-15T01:37:19.188Z,5.68
2019-05-15T01:38:19.081Z,5.66
2019-05-15T01:39:18.980Z,5.53
2019-05-15T01:40:18.870Z,5.53
2019-05-15T01:41:19.030Z,5.47
2019-05-15T01:42:18.759Z,5.53
2019-05-15T01:43:18.870Z,5.38
2019-05-15T01:44:18.445Z,5.46
2019-05-15T01:45:18.924Z,5.47
2019-05-15T01:46:19.073Z,5.51
2019-05-15T01:47:18.938Z,5.48
2019-05-15T01:48:18.988Z,5.54
2019-05-15T01:49:18.684Z,5.39
2019-05-15T01:50:18.508Z,5.46
2019-05-15T01:51:18.466Z,5.43
2019-05-15T01:52:18.727Z,5.36
2019-05-15T01:53:18.667Z,5.23
2019-05-15T01:54:18.641Z,5.25
2019-05-15T01:55:18.178Z,5.23
2019-05-15T01:56:18.853Z,5.14
2019-05-15T01:57:18.164Z,5.18
2019-05-15T01:58:18.657Z,5.10
2019-05-15T01:59:18.785Z,5.07
2019-05-15T02:00:18.696Z,5.18
2019-05-15T02:01:18.896Z,5.17
2019-05-15T02:02:18.577Z,5.08
2019-05-15T02:03:18.186Z,4.94
2019-05-15T02:04:16.326Z,4.97
2019-05-15T02:05:16.247Z,4.99
2019-05-15T02:06:18.551Z,4.97
2019-05-15T02:07:16.008Z,4.92
2019-05-15T02:08:15.908Z,4.92
2019-05-15T02:09:15.797Z,4.94
2019-05-15T02:10:15.692Z,4.80
2019-05-15T02:11:17.979Z,4.80
2019-05-15T02:12:15.479Z,4.74
2019-05-15T02:13:15.373Z,4.73
2019-05-15T02:14:15.268Z,4.66
2019-05-15T02:15:15.161Z,4.62
2019-05-15T02:16:15.054Z,4.77
2019-05-15T02:17:14.949Z,4.62
2019-05-15T02:18:14.842Z,4.74
2019-05-15T02:19:14.738Z,4.67
2019-05-15T02:20:14.631Z,4.68
2019-05-15T02:21:14.525Z,4.66
2019-05-15T02:22:14.438Z,4.62
2019-05-15T02:23:14.311Z,4.63
2019-05-15T02:24:14.242Z,4.63
2019-05-15T02:25:14.158Z,4.59
2019-05-15T02:26:13.993Z,4.58
2019-05-15T02:27:13.886Z,4.53
2019-05-15T02:28:13.781Z,4.56
2019-05-15T02:29:16.606Z,4.56
2019-05-15T02:30:26.717Z,4.49
2019-05-15T02:31:13.462Z,4.55
2019-05-15T02:32:13.359Z,4.50
2019-05-15T02:33:13.249Z,4.58
2019-05-15T02:34:13.147Z,4.53
2019-05-15T02:35:13.038Z,4.63
2019-05-15T02:36:12.934Z,4.63
2019-05-15T02:37:12.824Z,4.63
2019-05-15T02:38:15.403Z,4.50
2019-05-15T02:39:12.621Z,4.59
2019-05-15T02:40:12.514Z,4.56
2019-05-15T02:41:12.401Z,4.60
2019-05-15T02:42:12.299Z,4.59
2019-05-15T02:43:12.202Z,4.63
2019-05-15T02:44:12.126Z,4.59
2019-05-15T02:45:11.974Z,4.59
2019-05-15T02:46:11.869Z,4.56
2019-05-15T02:47:11.761Z,4.55
2019-05-15T02:48:11.659Z,4.53
2019-05-15T02:49:11.550Z,4.58
2019-05-15T02:50:11.493Z,4.55
2019-05-15T02:51:11.339Z,4.53
2019-05-15T02:52:11.232Z,4.42
2019-05-15T02:53:11.125Z,4.42
2019-05-15T02:54:11.017Z,4.41
2019-05-15T02:55:10.921Z,4.40
2019-05-15T02:56:10.811Z,4.41
2019-05-15T02:57:10.699Z,4.41
2019-05-15T02:58:10.796Z,4.44
2019-05-15T02:59:10.484Z,4.34
2019-05-15T03:00:11.192Z,4.22
2019-05-15T03:01:10.277Z,4.17
2019-05-15T03:02:10.429Z,4.12
2019-05-15T03:03:10.115Z,4.10
2019-05-15T03:04:09.955Z,4.12
2019-05-15T03:05:09.898Z,4.13
2019-05-15T03:06:10.124Z,4.06
2019-05-15T03:07:09.801Z,4.10
2019-05-15T03:08:09.863Z,4.12
2019-05-15T03:09:09.741Z,4.06
2019-05-15T03:10:09.613Z,4.08
2019-05-15T03:11:09.858Z,4.08
2019-05-15T03:12:09.227Z,4.08
2019-05-15T03:13:09.768Z,4.12
2019-05-15T03:14:09.360Z,4.14
2019-05-15T03:15:09.697Z,4.06
2019-05-15T03:16:10.149Z,4.04
2019-05-15T03:17:09.800Z,4.06
2019-05-15T03:18:09.551Z,4.06
2019-05-15T03:19:09.958Z,4.05
2019-05-15T03:20:10.306Z,4.02
2019-05-15T03:21:09.614Z,4.10
2019-05-15T03:22:09.731Z,4.02
2019-05-15T03:23:09.691Z,4.04
2019-05-15T03:24:10.210Z,4.12
2019-05-15T03:25:10.569Z,4.06
2019-05-15T03:26:08.890Z,4.08
2019-05-15T03:27:09.140Z,4.10
2019-05-15T03:28:10.577Z,4.10
2019-05-15T03:29:09.742Z,4.04
2019-05-15T03:30:12.204Z,4.06
2019-05-15T03:31:30.439Z,4.05
2019-05-15T03:32:24.430Z,4.12
2019-05-15T03:33:15.803Z,4.08
2019-05-15T03:34:18.510Z,4.05
2019-05-15T03:35:12.397Z,4.05
2019-05-15T03:36:12.479Z,4.14
2019-05-15T03:37:11.650Z,4.08
2019-05-15T03:38:09.191Z,4.10
2019-05-15T03:39:06.227Z,4.19
2019-05-15T03:40:06.127Z,4.08
2019-05-15T03:41:06.064Z,4.08
2019-05-15T03:42:05.919Z,4.16
2019-05-15T03:43:08.873Z,4.19
2019-05-15T03:44:05.695Z,4.17
2019-05-15T03:45:05.587Z,4.28
2019-05-15T03:46:08.742Z,4.37
2019-05-15T03:47:05.374Z,4.41
2019-05-15T03:48:05.268Z,4.50
2019-05-15T03:49:05.165Z,4.49
2019-05-15T03:50:05.061Z,4.50
2019-05-15T03:51:04.958Z,4.52
2019-05-15T03:52:04.843Z,4.55
2019-05-15T03:53:04.746Z,4.58
2019-05-15T03:54:04.630Z,4.55
2019-05-15T03:55:04.525Z,4.53
2019-05-15T03:56:04.430Z,4.55
2019-05-15T03:57:04.321Z,4.50
2019-05-15T03:58:04.208Z,4.58
2019-05-15T03:59:04.107Z,4.63
2019-05-15T04:00:04.060Z,4.86
2019-05-15T04:01:03.887Z,4.87
2019-05-15T04:02:03.780Z,4.93
2019-05-15T04:03:03.675Z,4.90
2019-05-15T04:04:03.571Z,4.93
2019-05-15T04:05:03.461Z,4.96
2019-05-15T04:06:03.356Z,4.99
2019-05-15T04:07:03.247Z,4.99
2019-05-15T04:08:03.142Z,5.11
2019-05-15T04:09:03.038Z,5.11
2019-05-15T04:10:02.933Z,5.14
2019-05-15T04:11:02.829Z,5.21
2019-05-15T04:12:02.723Z,5.30
2019-05-15T04:13:02.611Z,5.26
2019-05-15T04:14:02.539Z,5.39
2019-05-15T04:15:02.398Z,5.41
2019-05-15T04:16:02.292Z,5.44
2019-05-15T04:17:02.190Z,5.48
2019-05-15T04:18:02.087Z,5.51
2019-05-15T04:19:02.020Z,5.66
2019-05-15T04:20:01.873Z,5.69
2019-05-15T04:21:01.764Z,5.76
2019-05-15T04:22:01.657Z,5.84
2019-05-15T04:23:01.556Z,5.97
2019-05-15T04:24:01.446Z,5.89
2019-05-15T04:25:01.344Z,5.97
2019-05-15T04:26:01.245Z,6.04
2019-05-15T04:27:01.136Z,5.93
2019-05-15T04:28:01.027Z,5.98
2019-05-15T04:29:00.917Z,6.09
2019-05-15T04:30:00.813Z,6.22
2019-05-15T04:31:00.708Z,6.14
2019-05-15T04:32:05.375Z,6.17
2019-05-15T04:33:00.493Z,6.12
2019-05-15T04:34:00.400Z,6.12
2019-05-15T04:35:00.286Z,6.16
2019-05-15T04:36:00.178Z,6.08
2019-05-15T04:37:00.073Z,6.14
2019-05-15T04:38:00.035Z,6.12
2019-05-15T04:38:59.867Z,6.16
2019-05-15T04:39:59.962Z,6.17
2019-05-15T04:40:59.652Z,6.26
2019-05-15T04:41:59.548Z,6.24
2019-05-15T04:42:59.489Z,6.19
2019-05-15T04:43:59.736Z,6.14
2019-05-15T04:44:59.611Z,6.11
2019-05-15T04:46:02.847Z,6.12
2019-05-15T04:46:59.649Z,6.24
2019-05-15T04:47:58.935Z,6.19
2019-05-15T04:48:59.638Z,6.20
2019-05-15T04:49:59.039Z,6.26
2019-05-15T04:50:58.979Z,6.20
2019-05-15T04:52:03.136Z,6.22
2019-05-15T04:52:59.340Z,6.24
2019-05-15T04:53:58.729Z,6.31
2019-05-15T04:54:59.788Z,6.39
2019-05-15T04:55:59.773Z,6.44
2019-05-15T04:56:59.438Z,6.54
2019-05-15T04:57:59.251Z,6.52
2019-05-15T04:59:00.091Z,6.54
2019-05-15T04:59:58.758Z,6.51
2019-05-15T05:00:59.966Z,6.66
2019-05-15T05:02:16.394Z,6.72
2019-05-15T05:02:58.837Z,6.85
2019-05-15T05:03:58.910Z,6.87
2019-05-15T05:04:58.830Z,6.95
2019-05-15T05:05:59.167Z,6.92
2019-05-15T05:06:58.694Z,6.89
2019-05-15T05:07:59.537Z,7.00
2019-05-15T05:08:59.483Z,7.07
2019-05-15T05:09:59.433Z,7.03
2019-05-15T05:10:59.181Z,7.02
2019-05-15T05:11:58.253Z,7.10
2019-05-15T05:12:58.998Z,7.18
2019-05-15T05:13:58.939Z,7.32
2019-05-15T05:14:58.615Z,7.35
2019-05-15T05:15:58.474Z,7.38
2019-05-15T05:16:55.953Z,7.36
2019-05-15T05:17:58.413Z,7.63
2019-05-15T05:18:55.668Z,7.56
2019-05-15T05:19:55.561Z,7.58
2019-05-15T05:20:57.631Z,7.50
2019-05-15T05:21:55.354Z,7.43
2019-05-15T05:22:55.251Z,7.32
2019-05-15T05:23:55.146Z,7.38
2019-05-15T05:24:55.042Z,7.38
2019-05-15T05:25:54.937Z,7.48
2019-05-15T05:26:54.837Z,7.48
2019-05-15T05:27:54.730Z,7.42
2019-05-15T05:28:54.628Z,7.47
2019-05-15T05:29:54.522Z,7.51
2019-05-15T05:30:54.419Z,7.51
2019-05-15T05:31:54.320Z,7.48
2019-05-15T05:32:54.212Z,7.51
2019-05-15T05:33:54.112Z,7.51
2019-05-15T05:34:54.006Z,7.51
2019-05-15T05:35:53.925Z,7.54
2019-05-15T05:36:53.798Z,7.60
2019-05-15T05:37:53.693Z,7.80
2019-05-15T05:38:53.594Z,7.88
2019-05-15T05:39:53.485Z,7.82
2019-05-15T05:40:53.384Z,7.88
2019-05-15T05:41:53.280Z,7.95
2019-05-15T05:42:53.176Z,8.01
2019-05-15T05:43:53.075Z,7.95
2019-05-15T05:44:52.971Z,7.90
2019-05-15T05:45:52.872Z,8.08
2019-05-15T05:46:52.764Z,8.12
2019-05-15T05:47:52.661Z,8.10
2019-05-15T05:48:52.557Z,8.15
2019-05-15T05:49:52.452Z,8.18
2019-05-15T05:50:52.352Z,8.28
2019-05-15T05:51:52.246Z,8.30
2019-05-15T05:52:52.146Z,8.36
2019-05-15T05:53:52.054Z,8.34
2019-05-15T05:54:51.972Z,8.36
2019-05-15T05:55:53.543Z,8.37
2019-05-15T05:56:51.732Z,8.38
2019-05-15T05:57:51.630Z,8.48
2019-05-15T05:58:51.533Z,8.55
2019-05-15T05:59:51.426Z,8.63
2019-05-15T06:00:51.328Z,8.70
2019-05-15T06:01:51.219Z,8.64
2019-05-15T06:02:52.226Z,8.61
2019-05-15T06:03:51.014Z,8.74
2019-05-15T06:04:50.907Z,8.82
2019-05-15T06:05:50.816Z,8.89
2019-05-15T06:07:06.106Z,8.89
2019-05-15T06:07:50.602Z,8.89
2019-05-15T06:08:50.503Z,8.99
2019-05-15T06:09:50.398Z,8.92
2019-05-15T06:10:50.298Z,9.00
2019-05-15T06:11:50.191Z,9.10
2019-05-15T06:12:50.093Z,9.16
2019-05-15T06:13:52.460Z,9.23
2019-05-15T06:14:49.935Z,9.22
2019-05-15T06:15:49.796Z,9.22
2019-05-15T06:16:49.685Z,9.34
2019-05-15T06:17:49.580Z,9.41
2019-05-15T06:18:49.475Z,9.40
2019-05-15T06:19:49.374Z,9.32
2019-05-15T06:20:49.600Z,9.29
2019-05-15T06:21:57.205Z,9.18
2019-05-15T06:22:49.067Z,9.41
2019-05-15T06:23:55.703Z,9.36
2019-05-15T06:24:48.865Z,9.37
2019-05-15T06:25:48.760Z,9.32
2019-05-15T06:26:48.657Z,9.55
2019-05-15T06:27:48.556Z,9.61
2019-05-15T06:28:48.999Z,9.47
2019-05-15T06:29:48.564Z,9.48
2019-05-15T06:30:48.629Z,9.56
2019-05-15T06:31:48.388Z,9.58
2019-05-15T06:33:01.867Z,9.62
2019-05-15T06:33:49.113Z,9.74
2019-05-15T06:34:48.486Z,10.05
2019-05-15T06:35:49.061Z,10.05
2019-05-15T06:36:48.601Z,10.04
2019-05-15T06:37:48.463Z,10.12
2019-05-15T06:38:48.369Z,10.48
2019-05-15T06:39:48.155Z,10.44
2019-05-15T06:40:48.623Z,10.74
2019-05-15T06:41:48.268Z,10.94
2019-05-15T06:42:48.347Z,11.04
2019-05-15T06:43:48.405Z,11.33
2019-05-15T06:44:48.397Z,11.50
2019-05-15T06:45:48.647Z,11.75
2019-05-15T06:46:48.314Z,12.06
2019-05-15T06:47:48.213Z,11.90
2019-05-15T06:48:48.469Z,12.00
2019-05-15T06:49:48.470Z,11.78
2019-05-15T06:50:48.600Z,12.12
2019-05-15T06:51:48.546Z,13.38
2019-05-15T06:52:48.515Z,13.89
2019-05-15T06:53:45.921Z,14.47
2019-05-15T06:54:45.886Z,15.15
2019-05-15T06:55:48.297Z,15.28
2019-05-15T06:56:45.623Z,15.10
2019-05-15T06:57:45.525Z,15.40
2019-05-15T06:58:45.423Z,15.47
2019-05-15T06:59:45.331Z,15.31
2019-05-15T07:00:45.229Z,14.60
2019-05-15T07:01:45.134Z,14.91
2019-05-15T07:02:45.034Z,15.52
2019-05-15T07:03:44.947Z,15.82
2019-05-15T07:04:44.841Z,15.47
2019-05-15T07:05:44.743Z,15.54
2019-05-15T07:06:44.648Z,16.09
2019-05-15T07:07:44.548Z,16.35
2019-05-15T07:08:44.455Z,16.16
2019-05-15T07:09:44.362Z,16.16
2019-05-15T07:10:44.264Z,16.28
2019-05-15T07:11:44.167Z,16.64
2019-05-15T07:12:44.073Z,16.64
2019-05-15T07:13:43.977Z,17.05
2019-05-15T07:14:43.897Z,17.16
2019-05-15T07:15:43.857Z,15.70
2019-05-15T07:16:43.692Z,16.10
2019-05-15T07:17:43.598Z,15.68
2019-05-15T07:18:43.505Z,15.68
2019-05-15T07:19:43.414Z,15.02
2019-05-15T07:20:43.314Z,15.00
2019-05-15T07:21:43.221Z,14.62
2019-05-15T07:22:43.126Z,15.10
2019-05-15T07:23:43.036Z,15.39
2019-05-15T07:24:42.937Z,16.13
2019-05-15T07:25:42.847Z,16.31
2019-05-15T07:26:42.748Z,16.26
2019-05-15T07:27:42.655Z,16.66
2019-05-15T07:28:42.563Z,17.16
2019-05-15T07:29:42.469Z,16.51
2019-05-15T07:30:42.372Z,16.05
2019-05-15T07:31:42.279Z,15.51
2019-05-15T07:32:42.184Z,15.39
2019-05-15T07:33:43.851Z,15.82
2019-05-15T07:34:41.996Z,16.49
2019-05-15T07:35:41.902Z,16.47
2019-05-15T07:36:41.835Z,16.64
2019-05-15T07:37:41.777Z,16.86
2019-05-15T07:38:41.621Z,17.06
2019-05-15T07:39:41.536Z,17.63
2019-05-15T07:40:41.433Z,17.86
2019-05-15T07:41:41.339Z,18.01
2019-05-15T07:42:41.247Z,18.05
2019-05-15T07:43:41.154Z,18.15
2019-05-15T07:44:41.061Z,17.79
2019-05-15T07:45:43.620Z,16.65
2019-05-15T07:46:40.873Z,16.23
2019-05-15T07:47:40.781Z,16.29
2019-05-15T07:48:43.814Z,16.76
2019-05-15T07:49:40.594Z,17.08
2019-05-15T07:50:40.506Z,16.68
2019-05-15T07:51:40.408Z,15.82
2019-05-15T07:52:40.454Z,15.18
2019-05-15T07:53:40.305Z,14.37
2019-05-15T07:54:40.127Z,14.28
2019-05-15T07:55:40.038Z,13.86
2019-05-15T07:56:39.942Z,13.60
2019-05-15T07:57:39.886Z,13.75
2019-05-15T07:58:39.808Z,13.50
2019-05-15T07:59:39.743Z,13.46
2019-05-15T08:00:39.662Z,13.44
2019-05-15T08:01:39.473Z,13.71
2019-05-15T08:02:39.372Z,13.89
2019-05-15T08:03:53.871Z,14.10
2019-05-15T08:04:39.181Z,14.22
2019-05-15T08:05:54.692Z,14.23
2019-05-15T08:06:39.059Z,14.25
2019-05-15T08:07:39.010Z,14.25
2019-05-15T08:08:39.297Z,13.95
2019-05-15T08:09:39.127Z,13.99
2019-05-15T08:10:39.704Z,13.92
2019-05-15T08:11:39.187Z,14.14
2019-05-15T08:12:39.274Z,14.45
2019-05-15T08:13:38.464Z,14.12
2019-05-15T08:14:38.803Z,14.45
2019-05-15T08:15:38.305Z,14.63
2019-05-15T08:16:39.470Z,14.91
2019-05-15T08:17:59.284Z,14.45
2019-05-15T08:18:39.376Z,14.62
2019-05-15T08:19:38.373Z,14.82
2019-05-15T08:20:38.534Z,15.04
2019-05-15T08:21:38.500Z,15.22
2019-05-15T08:22:38.251Z,15.58
2019-05-15T08:23:39.070Z,15.49
2019-05-15T08:24:39.196Z,15.68
2019-05-15T08:25:38.918Z,15.88
2019-05-15T08:26:37.944Z,15.86
2019-05-15T08:27:38.265Z,15.91
2019-05-15T08:28:38.264Z,15.62
2019-05-15T08:29:38.305Z,15.92
2019-05-15T08:30:38.753Z,15.58
2019-05-15T08:31:38.668Z,15.57
2019-05-15T08:32:38.701Z,15.25
2019-05-15T08:33:38.712Z,15.46
2019-05-15T08:34:38.319Z,15.29
2019-05-15T08:35:38.499Z,15.28
2019-05-15T08:36:38.384Z,15.06
2019-05-15T08:37:38.294Z,15.03
2019-05-15T08:38:38.149Z,14.88
2019-05-15T08:39:38.008Z,14.60
2019-05-15T08:40:40.752Z,14.68
2019-05-15T08:41:35.633Z,14.79
2019-05-15T08:42:35.507Z,15.03
2019-05-15T08:43:35.412Z,14.77
2019-05-15T08:44:35.317Z,14.78
2019-05-15T08:45:35.220Z,14.59
2019-05-15T08:46:35.130Z,14.41
2019-05-15T08:47:35.029Z,14.29
2019-05-15T08:48:34.931Z,14.36
2019-05-15T08:49:34.847Z,14.62
2019-05-15T08:50:34.735Z,14.58
2019-05-15T08:51:34.643Z,14.55
2019-05-15T08:52:34.544Z,14.29
2019-05-15T08:53:34.453Z,14.81
2019-05-15T08:54:34.347Z,15.22
2019-05-15T08:55:34.259Z,15.43
2019-05-15T08:56:34.155Z,15.52
2019-05-15T08:57:34.074Z,15.67
2019-05-15T08:58:33.962Z,15.72
2019-05-15T08:59:33.862Z,15.68
2019-05-15T09:00:33.771Z,15.40
2019-05-15T09:01:33.722Z,15.37
2019-05-15T09:02:33.576Z,15.68
2019-05-15T09:03:33.477Z,15.75
2019-05-15T09:04:35.061Z,15.49
2019-05-15T09:05:33.284Z,15.67
2019-05-15T09:06:33.188Z,15.58
2019-05-15T09:07:33.092Z,15.65
2019-05-15T09:08:32.997Z,15.75
2019-05-15T09:09:32.898Z,15.51
2019-05-15T09:10:32.801Z,15.27
2019-05-15T09:11:32.707Z,15.19
2019-05-15T09:12:32.612Z,15.18
2019-05-15T09:13:32.516Z,15.09
2019-05-15T09:14:32.417Z,15.31
2019-05-15T09:15:32.337Z,15.40
2019-05-15T09:16:32.223Z,15.43
2019-05-15T09:17:32.126Z,15.75
2019-05-15T09:18:32.038Z,15.70
2019-05-15T09:19:31.936Z,15.79
2019-05-15T09:20:31.843Z,16.28
2019-05-15T09:21:31.745Z,16.31
2019-05-15T09:22:31.702Z,16.16
2019-05-15T09:23:31.574Z,16.39
2019-05-15T09:24:31.454Z,16.31
2019-05-15T09:25:31.359Z,16.23
2019-05-15T09:26:31.262Z,16.51
2019-05-15T09:27:31.251Z,16.66
2019-05-15T09:28:31.158Z,16.54
2019-05-15T09:29:31.060Z,16.72
2019-05-15T09:30:30.966Z,16.32
2019-05-15T09:31:30.869Z,16.38
2019-05-15T09:32:30.773Z,16.26
2019-05-15T09:33:30.689Z,16.33
2019-05-15T09:34:46.741Z,15.82
2019-05-15T09:35:30.488Z,15.55
2019-05-15T09:36:30.398Z,16.26
2019-05-15T09:37:33.439Z,16.64
2019-05-15T09:38:30.230Z,16.78
2019-05-15T09:39:30.104Z,17.14
2019-05-15T09:40:42.249Z,18.10
2019-05-15T09:41:29.915Z,17.98
2019-05-15T09:42:29.819Z,17.94
2019-05-15T09:43:29.724Z,17.82
2019-05-15T09:44:29.708Z,17.98
2019-05-15T09:45:29.535Z,17.86
2019-05-15T09:46:29.446Z,17.94
2019-05-15T09:47:29.629Z,18.23
2019-05-15T09:48:29.251Z,18.10
2019-05-15T09:49:29.156Z,18.50
2019-05-15T09:50:29.068Z,18.70
2019-05-15T09:51:29.117Z,18.41
2019-05-15T09:52:29.874Z,18.96
2019-05-15T09:53:28.784Z,19.41
2019-05-15T09:54:29.327Z,20.11
2019-05-15T09:55:28.609Z,20.24
2019-05-15T09:56:29.118Z,20.31
2019-05-15T09:57:30.263Z,20.19
2019-05-15T09:58:30.310Z,18.40
2019-05-15T09:59:28.312Z,16.93
2019-05-15T10:00:29.284Z,16.99
2019-05-15T10:01:28.500Z,16.39
2019-05-15T10:02:28.433Z,16.65
2019-05-15T10:03:28.227Z,16.36
2019-05-15T10:04:28.689Z,16.16
2019-05-15T10:05:28.113Z,16.38
2019-05-15T10:06:28.649Z,16.53
2019-05-15T10:07:28.566Z,16.68
2019-05-15T10:08:29.283Z,16.69
2019-05-15T10:09:28.420Z,16.61
2019-05-15T10:10:28.459Z,16.93
2019-05-15T10:11:28.936Z,16.97
2019-05-15T10:12:34.364Z,17.19
2019-05-15T10:13:28.823Z,17.44
2019-05-15T10:14:29.415Z,17.24
2019-05-15T10:15:26.747Z,17.14
2019-05-15T10:16:26.656Z,16.72
2019-05-15T10:17:28.943Z,16.43
2019-05-15T10:18:28.245Z,16.65
2019-05-15T10:19:28.854Z,16.64
2019-05-15T10:20:28.963Z,16.58
2019-05-15T10:21:29.629Z,16.64
2019-05-15T10:22:28.174Z,17.01
2019-05-15T10:23:28.863Z,16.74
2019-05-15T10:24:27.981Z,16.89
2019-05-15T10:25:28.021Z,17.26
2019-05-15T10:26:25.715Z,17.15
2019-05-15T10:27:25.662Z,17.19
2019-05-15T10:28:25.603Z,17.33
2019-05-15T10:29:25.434Z,17.49
2019-05-15T10:30:28.231Z,17.11
2019-05-15T10:31:25.245Z,16.81
2019-05-15T10:32:25.067Z,16.76
2019-05-15T10:33:24.972Z,16.49
2019-05-15T10:34:24.875Z,16.56
2019-05-15T10:35:28.586Z,16.72
2019-05-15T10:36:24.691Z,16.75
2019-05-15T10:37:24.596Z,16.64
2019-05-15T10:38:24.502Z,16.49
2019-05-15T10:39:24.405Z,15.86
2019-05-15T10:40:24.311Z,15.49
2019-05-15T10:41:24.217Z,15.75
2019-05-15T10:42:24.128Z,16.00
2019-05-15T10:43:24.033Z,15.90
2019-05-15T10:44:23.930Z,15.90
2019-05-15T10:45:23.836Z,15.80
2019-05-15T10:46:23.739Z,15.79
2019-05-15T10:47:23.645Z,15.64
2019-05-15T10:48:23.592Z,15.70
2019-05-15T10:49:23.520Z,15.72
2019-05-15T10:50:23.362Z,15.68
2019-05-15T10:51:23.262Z,15.62
2019-05-15T10:52:23.165Z,15.80
2019-05-15T10:53:23.073Z,15.75
2019-05-15T10:54:22.991Z,15.58
2019-05-15T10:55:22.879Z,15.46
2019-05-15T10:56:22.805Z,15.47
2019-05-15T10:57:22.692Z,15.49
2019-05-15T10:58:22.593Z,15.72
2019-05-15T10:59:22.496Z,15.57
2019-05-15T11:00:22.402Z,15.49
2019-05-15T11:01:22.303Z,15.40
2019-05-15T11:02:22.206Z,15.64
2019-05-15T11:03:22.110Z,15.86
2019-05-15T11:04:22.013Z,16.23
2019-05-15T11:05:21.927Z,16.29
2019-05-15T11:06:21.823Z,16.26
2019-05-15T11:07:21.732Z,16.35
2019-05-15T11:08:21.628Z,16.28
2019-05-15T11:09:21.579Z,16.38
2019-05-15T11:10:21.512Z,16.69
2019-05-15T11:11:21.343Z,16.61
2019-05-15T11:12:21.246Z,16.29
2019-05-15T11:13:21.149Z,16.15
2019-05-15T11:14:21.054Z,16.12
2019-05-15T11:15:20.987Z,16.35
2019-05-15T11:16:21.246Z,16.36
2019-05-15T11:17:20.778Z,16.75
2019-05-15T11:18:20.670Z,16.26
2019-05-15T11:19:20.572Z,16.24
2019-05-15T11:20:20.478Z,16.24
2019-05-15T11:21:20.383Z,16.23
2019-05-15T11:22:20.285Z,16.54
2019-05-15T11:23:20.507Z,16.89
2019-05-15T11:24:20.099Z,17.15
2019-05-15T11:25:19.996Z,17.15
2019-05-15T11:26:20.024Z,17.06
2019-05-15T11:27:19.803Z,16.69
2019-05-15T11:28:19.721Z,16.83
2019-05-15T11:29:19.613Z,16.84
2019-05-15T11:30:19.558Z,16.64
2019-05-15T11:31:19.494Z,16.68
2019-05-15T11:32:19.329Z,16.38
2019-05-15T11:33:19.398Z,16.31
2019-05-15T11:34:19.137Z,16.23
2019-05-15T11:35:19.097Z,16.32
2019-05-15T11:36:18.943Z,16.58
2019-05-15T11:37:19.027Z,16.65
2019-05-15T11:38:19.534Z,16.53
2019-05-15T11:39:18.659Z,16.26
2019-05-15T11:40:18.862Z,16.26
2019-05-15T11:41:19.200Z,15.97
2019-05-15T11:42:20.277Z,16.17
2019-05-15T11:43:19.738Z,16.01
2019-05-15T11:44:18.767Z,15.94
2019-05-15T11:45:18.550Z,15.90
2019-05-15T11:46:18.536Z,15.94
2019-05-15T11:47:18.408Z,15.73
2019-05-15T11:48:20.616Z,15.79
2019-05-15T11:49:18.208Z,15.82
2019-05-15T11:50:20.508Z,15.77
2019-05-15T11:51:18.457Z,16.17
2019-05-15T11:52:18.780Z,16.60
2019-05-15T11:53:19.247Z,16.83
2019-05-15T11:54:19.124Z,16.46
2019-05-15T11:55:17.112Z,16.69
2019-05-15T11:56:18.850Z,16.86
2019-05-15T11:57:19.046Z,17.11
2019-05-15T11:58:18.987Z,17.30
2019-05-15T11:59:18.464Z,16.83
2019-05-15T12:00:26.179Z,16.78
2019-05-15T12:01:19.151Z,16.36
2019-05-15T12:02:18.896Z,16.33
2019-05-15T12:03:18.658Z,16.68
2019-05-15T12:04:27.612Z,16.57
2019-05-15T12:05:18.078Z,16.33
2019-05-15T12:06:22.436Z,16.01
2019-05-15T12:07:18.129Z,16.21
2019-05-15T12:08:17.990Z,16.35
2019-05-15T12:09:18.574Z,16.50
2019-05-15T12:10:18.197Z,16.51
2019-05-15T12:11:30.849Z,16.61
2019-05-15T12:12:17.927Z,16.53
2019-05-15T12:13:15.433Z,16.60
2019-05-15T12:14:18.620Z,16.64
2019-05-15T12:15:15.194Z,16.38
2019-05-15T12:16:15.099Z,16.54
2019-05-15T12:17:15.556Z,16.64
2019-05-15T12:18:14.907Z,16.61
2019-05-15T12:19:17.406Z,16.60
2019-05-15T12:20:14.719Z,16.41
2019-05-15T12:21:19.089Z,16.36
2019-05-15T12:22:14.526Z,16.58
2019-05-15T12:23:14.428Z,16.69
2019-05-15T12:24:14.334Z,16.90
2019-05-15T12:25:14.237Z,16.91
2019-05-15T12:26:14.140Z,17.19
2019-05-15T12:27:18.220Z,17.26
2019-05-15T12:28:13.949Z,17.41
2019-05-15T12:29:13.857Z,17.27
2019-05-15T12:30:13.769Z,17.29
2019-05-15T12:31:13.666Z,16.66
2019-05-15T12:33:13.469Z,16.24
2019-05-15T12:34:13.395Z,16.26
2019-05-15T12:35:13.287Z,16.29
2019-05-15T12:36:13.184Z,16.02
2019-05-15T12:37:13.089Z,16.29
2019-05-15T12:38:12.986Z,16.21
2019-05-15T12:39:13.728Z,16.31
2019-05-15T13:00:10.888Z,16.71
2019-05-15T13:01:16.874Z,16.66
2019-05-15T13:02:10.677Z,16.66
2019-05-15T13:03:10.582Z,16.33
2019-05-15T13:04:10.487Z,16.31
2019-05-15T13:05:10.388Z,16.09
2019-05-15T13:06:10.290Z,16.32
2019-05-15T13:07:13.980Z,16.24
2019-05-15T13:08:10.098Z,16.13
2019-05-15T13:09:10.000Z,16.10
2019-05-15T13:10:09.901Z,16.02
2019-05-15T13:11:14.773Z,16.20
2019-05-15T13:12:09.712Z,16.26
2019-05-15T13:13:10.030Z,16.47
2019-05-15T13:14:09.519Z,16.35
2019-05-15T13:15:09.422Z,16.29
2019-05-15T13:16:09.435Z,16.31
2019-05-15T13:17:09.236Z,16.24
2019-05-15T13:18:13.931Z,16.16
2019-05-15T13:19:09.036Z,16.26
2019-05-15T13:20:08.937Z,16.26
2019-05-15T13:21:08.854Z,16.23
2019-05-15T13:22:17.651Z,16.26
2019-05-15T13:23:08.648Z,16.23
2019-05-15T13:24:08.550Z,16.13
2019-05-15T13:25:08.691Z,15.97